sensor_id;sensor_type;location;lat;lon;timestamp;pressure;altitude;pressure_sealevel;temperature;humidity
22257;BME280;11297;42.686;23.374;2022-10-24T00:01:21;95725.44;;;16.24;56.85
22257;BME280;11297;42.686;23.374;2022-10-24T00:03:47;95730.25;;;16.22;56.12
22257;BME280;11297;42.686;23.374;2022-10-24T00:06:13;95730.13;;;16.10;56.13
22257;BME280;11297;42.686;23.374;2022-10-24T00:08:40;95732.78;;;16.02;56.76
22257;BME280;11297;42.686;23.374;2022-10-24T00:11:11;95716.00;;;15.94;56.69
22257;BME280;11297;42.686;23.374;2022-10-24T00:13:37;95721.09;;;15.91;56.53
22257;BME280;11297;42.686;23.374;2022-10-24T00:16:02;95718.19;;;15.84;56.95
22257;BME280;11297;42.686;23.374;2022-10-24T00:18:28;95716.19;;;15.81;57.28
22257;BME280;11297;42.686;23.374;2022-10-24T00:20:53;95715.63;;;15.76;57.50
22257;BME280;11297;42.686;23.374;2022-10-24T00:23:18;95721.94;;;15.75;57.57
22257;BME280;11297;42.686;23.374;2022-10-24T00:25:44;95718.88;;;15.73;58.03
22257;BME280;11297;42.686;23.374;2022-10-24T00:28:09;95714.56;;;15.68;57.80
22257;BME280;11297;42.686;23.374;2022-10-24T00:30:35;95712.25;;;15.67;57.98
22257;BME280;11297;42.686;23.374;2022-10-24T00:33:00;95722.75;;;15.67;57.82
22257;BME280;11297;42.686;23.374;2022-10-24T00:35:25;95718.13;;;15.64;58.06
22257;BME280;11297;42.686;23.374;2022-10-24T00:37:51;95710.09;;;15.60;58.19
22257;BME280;11297;42.686;23.374;2022-10-24T00:40:18;95714.13;;;15.58;58.21
22257;BME280;11297;42.686;23.374;2022-10-24T00:42:44;95709.22;;;15.56;58.26
22257;BME280;11297;42.686;23.374;2022-10-24T00:48:00;95712.41;;;15.62;58.22
22257;BME280;11297;42.686;23.374;2022-10-24T00:50:25;95712.41;;;15.62;58.01
22257;BME280;11297;42.686;23.374;2022-10-24T00:52:51;95708.72;;;15.63;57.97
22257;BME280;11297;42.686;23.374;2022-10-24T00:55:16;95713.66;;;15.64;57.95
22257;BME280;11297;42.686;23.374;2022-10-24T00:57:49;95709.16;;;15.65;57.70
22257;BME280;11297;42.686;23.374;2022-10-24T01:00:24;95709.16;;;15.65;57.64
22257;BME280;11297;42.686;23.374;2022-10-24T01:02:50;95722.28;;;15.65;57.28
22257;BME280;11297;42.686;23.374;2022-10-24T01:05:17;95716.91;;;15.61;57.50
22257;BME280;11297;42.686;23.374;2022-10-24T01:08:08;95717.97;;;15.60;57.77
22257;BME280;11297;42.686;23.374;2022-10-24T01:10:50;95718.44;;;15.54;57.71
22257;BME280;11297;42.686;23.374;2022-10-24T01:13:24;95716.63;;;15.46;57.80
22257;BME280;11297;42.686;23.374;2022-10-24T01:18:24;95708.47;;;15.39;58.48
22257;BME280;11297;42.686;23.374;2022-10-24T01:23:59;95718.34;;;15.33;58.62
22257;BME280;11297;42.686;23.374;2022-10-24T01:31:56;95718.69;;;15.07;59.35
22257;BME280;11297;42.686;23.374;2022-10-24T01:34:46;95701.75;;;14.87;59.12
22257;BME280;11297;42.686;23.374;2022-10-24T01:37:24;95713.00;;;14.96;59.08
22257;BME280;11297;42.686;23.374;2022-10-24T01:39:55;95712.50;;;14.94;58.99
22257;BME280;11297;42.686;23.374;2022-10-24T01:42:25;95711.00;;;14.93;59.32
22257;BME280;11297;42.686;23.374;2022-10-24T01:44:54;95719.16;;;14.92;59.68
22257;BME280;11297;42.686;23.374;2022-10-24T01:47:24;95720.66;;;14.93;59.19
22257;BME280;11297;42.686;23.374;2022-10-24T01:49:55;95713.13;;;14.91;59.09
22257;BME280;11297;42.686;23.374;2022-10-24T01:52:24;95718.84;;;14.93;59.22
22257;BME280;11297;42.686;23.374;2022-10-24T01:54:53;95719.91;;;14.92;59.00
22257;BME280;11297;42.686;23.374;2022-10-24T01:57:18;95711.28;;;14.92;59.21
22257;BME280;11297;42.686;23.374;2022-10-24T01:59:47;95716.53;;;14.92;59.08
22257;BME280;11297;42.686;23.374;2022-10-24T02:02:41;95713.59;;;14.93;59.01
22257;BME280;11297;42.686;23.374;2022-10-24T02:05:33;95713.59;;;14.93;58.52
22257;BME280;11297;42.686;23.374;2022-10-24T02:08:04;95709.44;;;14.92;58.49
22257;BME280;11297;42.686;23.374;2022-10-24T02:10:38;95710.06;;;14.89;59.13
22257;BME280;11297;42.686;23.374;2022-10-24T02:13:10;95717.59;;;14.91;59.21
22257;BME280;11297;42.686;23.374;2022-10-24T02:15:41;95719.44;;;14.90;59.25
22257;BME280;11297;42.686;23.374;2022-10-24T02:18:09;95717.28;;;14.92;59.42
22257;BME280;11297;42.686;23.374;2022-10-24T02:20:51;95716.97;;;14.94;59.43
22257;BME280;11297;42.686;23.374;2022-10-24T02:23:37;95704.03;;;14.97;59.38
22257;BME280;11297;42.686;23.374;2022-10-24T02:26:12;95716.38;;;14.97;59.27
22257;BME280;11297;42.686;23.374;2022-10-24T02:28:42;95712.69;;;14.98;59.72
22257;BME280;11297;42.686;23.374;2022-10-24T02:31:18;95714.06;;;14.95;59.80
22257;BME280;11297;42.686;23.374;2022-10-24T02:33:50;95719.28;;;14.95;59.59
22257;BME280;11297;42.686;23.374;2022-10-24T02:36:19;95716.66;;;14.95;60.09
22257;BME280;11297;42.686;23.374;2022-10-24T02:38:47;95710.81;;;14.98;60.27
22257;BME280;11297;42.686;23.374;2022-10-24T02:41:21;95713.88;;;15.00;60.09
22257;BME280;11297;42.686;23.374;2022-10-24T02:43:49;95713.88;;;15.00;60.35
22257;BME280;11297;42.686;23.374;2022-10-24T02:46:17;95708.34;;;15.02;59.93
22257;BME280;11297;42.686;23.374;2022-10-24T02:48:48;95710.34;;;15.05;59.85
22257;BME280;11297;42.686;23.374;2022-10-24T02:51:16;95708.03;;;15.03;59.66
22257;BME280;11297;42.686;23.374;2022-10-24T02:53:43;95717.44;;;15.04;59.89
22257;BME280;11297;42.686;23.374;2022-10-24T02:56:08;95711.44;;;15.04;59.68
22257;BME280;11297;42.686;23.374;2022-10-24T02:58:33;95712.81;;;15.01;59.73
22257;BME280;11297;42.686;23.374;2022-10-24T03:00:59;95720.34;;;15.03;59.78
22257;BME280;11297;42.686;23.374;2022-10-24T03:03:24;95715.44;;;15.01;59.72
22257;BME280;11297;42.686;23.374;2022-10-24T03:05:50;95707.59;;;15.01;60.08
22257;BME280;11297;42.686;23.374;2022-10-24T03:08:15;95712.50;;;15.03;59.49
22257;BME280;11297;42.686;23.374;2022-10-24T03:10:40;95709.44;;;15.01;59.87
22257;BME280;11297;42.686;23.374;2022-10-24T03:13:06;95702.53;;;14.96;59.78
22257;BME280;11297;42.686;23.374;2022-10-24T03:15:31;95709.28;;;14.97;59.56
22257;BME280;11297;42.686;23.374;2022-10-24T03:17:57;95706.50;;;14.94;59.70
22257;BME280;11297;42.686;23.374;2022-10-24T03:20:22;95703.75;;;14.90;59.84
22257;BME280;11297;42.686;23.374;2022-10-24T03:22:49;95702.81;;;14.86;60.16
22257;BME280;11297;42.686;23.374;2022-10-24T03:25:14;95708.50;;;14.88;59.97
22257;BME280;11297;42.686;23.374;2022-10-24T03:27:40;95699.59;;;14.89;59.91
22257;BME280;11297;42.686;23.374;2022-10-24T03:30:06;95699.75;;;14.84;60.05
22257;BME280;11297;42.686;23.374;2022-10-24T03:32:32;95704.06;;;14.81;60.03
22257;BME280;11297;42.686;23.374;2022-10-24T03:34:58;95705.00;;;14.84;60.08
22257;BME280;11297;42.686;23.374;2022-10-24T03:37:24;95705.00;;;14.84;59.66
22257;BME280;11297;42.686;23.374;2022-10-24T03:39:50;95700.81;;;14.83;59.51
22257;BME280;11297;42.686;23.374;2022-10-24T03:42:15;95716.06;;;14.82;59.33
22257;BME280;11297;42.686;23.374;2022-10-24T03:44:40;95703.44;;;14.75;58.56
22257;BME280;11297;42.686;23.374;2022-10-24T03:47:06;95710.50;;;14.75;59.62
22257;BME280;11297;42.686;23.374;2022-10-24T03:49:31;95714.19;;;14.74;58.55
22257;BME280;11297;42.686;23.374;2022-10-24T03:51:57;95709.88;;;14.69;58.72
22257;BME280;11297;42.686;23.374;2022-10-24T03:54:23;95706.66;;;14.64;58.78
22257;BME280;11297;42.686;23.374;2022-10-24T03:56:49;95705.44;;;14.61;59.07
22257;BME280;11297;42.686;23.374;2022-10-24T03:59:14;95702.06;;;14.61;59.07
22257;BME280;11297;42.686;23.374;2022-10-24T04:01:40;95699.25;;;14.57;59.32
22257;BME280;11297;42.686;23.374;2022-10-24T04:04:06;95704.50;;;14.57;59.64
22257;BME280;11297;42.686;23.374;2022-10-24T04:06:31;95701.44;;;14.55;59.43
22257;BME280;11297;42.686;23.374;2022-10-24T04:08:56;95699.56;;;14.56;59.38
22257;BME280;11297;42.686;23.374;2022-10-24T04:11:23;95701.88;;;14.57;59.17
22257;BME280;11297;42.686;23.374;2022-10-24T04:13:49;95693.72;;;14.59;59.34
22257;BME280;11297;42.686;23.374;2022-10-24T04:16:14;95693.72;;;14.59;59.49
22257;BME280;11297;42.686;23.374;2022-10-24T04:18:42;95684.38;;;14.58;59.30
22257;BME280;11297;42.686;23.374;2022-10-24T04:21:07;95688.97;;;14.61;59.15
22257;BME280;11297;42.686;23.374;2022-10-24T04:23:33;95692.81;;;14.63;59.47
22257;BME280;11297;42.686;23.374;2022-10-24T04:26:02;95707.88;;;14.66;59.52
22257;BME280;11297;42.686;23.374;2022-10-24T04:28:28;95698.97;;;14.67;59.37
22257;BME280;11297;42.686;23.374;2022-10-24T04:30:55;95698.22;;;14.67;58.93
22257;BME280;11297;42.686;23.374;2022-10-24T04:33:21;95703.13;;;14.68;59.03
22257;BME280;11297;42.686;23.374;2022-10-24T04:35:48;95704.22;;;14.67;59.04
22257;BME280;11297;42.686;23.374;2022-10-24T04:38:13;95705.56;;;14.65;58.90
22257;BME280;11297;42.686;23.374;2022-10-24T04:40:39;95708.50;;;14.63;59.06
22257;BME280;11297;42.686;23.374;2022-10-24T04:43:04;95702.38;;;14.59;59.14
22257;BME280;11297;42.686;23.374;2022-10-24T04:45:29;95700.50;;;14.51;59.04
22257;BME280;11297;42.686;23.374;2022-10-24T04:47:55;95715.09;;;14.44;59.21
22257;BME280;11297;42.686;23.374;2022-10-24T04:50:20;95717.41;;;14.37;59.08
22257;BME280;11297;42.686;23.374;2022-10-24T04:52:45;95717.06;;;14.30;59.13
22257;BME280;11297;42.686;23.374;2022-10-24T04:55:11;95721.06;;;14.19;59.43
22257;BME280;11297;42.686;23.374;2022-10-24T04:57:36;95719.66;;;14.13;59.78
22257;BME280;11297;42.686;23.374;2022-10-24T05:00:03;95723.19;;;14.09;59.83
22257;BME280;11297;42.686;23.374;2022-10-24T05:02:29;95726.97;;;14.03;60.21
22257;BME280;11297;42.686;23.374;2022-10-24T05:04:54;95724.47;;;13.98;60.07
22257;BME280;11297;42.686;23.374;2022-10-24T05:07:19;95726.16;;;13.94;60.71
22257;BME280;11297;42.686;23.374;2022-10-24T05:09:46;95723.56;;;13.94;60.73
22257;BME280;11297;42.686;23.374;2022-10-24T05:12:12;95723.25;;;13.95;60.96
22257;BME280;11297;42.686;23.374;2022-10-24T05:14:37;95727.09;;;13.98;61.08
22257;BME280;11297;42.686;23.374;2022-10-24T05:17:03;95726.78;;;13.99;60.69
22257;BME280;11297;42.686;23.374;2022-10-24T05:19:28;95728.31;;;14.00;60.47
22257;BME280;11297;42.686;23.374;2022-10-24T05:21:54;95726.19;;;14.02;60.75
22257;BME280;11297;42.686;23.374;2022-10-24T05:24:19;95734.31;;;14.01;60.68
22257;BME280;11297;42.686;23.374;2022-10-24T05:26:45;95728.03;;;14.02;60.95
22257;BME280;11297;42.686;23.374;2022-10-24T05:29:10;95727.72;;;14.03;61.15
22257;BME280;11297;42.686;23.374;2022-10-24T05:31:36;95720.25;;;14.10;61.26
22257;BME280;11297;42.686;23.374;2022-10-24T05:34:01;95730.78;;;13.97;61.58
22257;BME280;11297;42.686;23.374;2022-10-24T05:36:26;95730.44;;;13.90;62.34
22257;BME280;11297;42.686;23.374;2022-10-24T05:38:52;95725.38;;;13.93;62.15
22257;BME280;11297;42.686;23.374;2022-10-24T05:41:17;95728.31;;;14.00;62.55
22257;BME280;11297;42.686;23.374;2022-10-24T05:43:42;95722.81;;;14.02;62.07
22257;BME280;11297;42.686;23.374;2022-10-24T05:46:08;95728.88;;;14.28;61.18
22257;BME280;11297;42.686;23.374;2022-10-24T05:48:35;95731.25;;;14.54;60.15
22257;BME280;11297;42.686;23.374;2022-10-24T05:51:00;95732.97;;;14.67;59.78
22257;BME280;11297;42.686;23.374;2022-10-24T05:53:26;95734.84;;;14.83;59.07
22257;BME280;11297;42.686;23.374;2022-10-24T05:55:51;95744.50;;;14.66;59.39
22257;BME280;11297;42.686;23.374;2022-10-24T05:58:17;95747.28;;;14.86;58.73
22257;BME280;11297;42.686;23.374;2022-10-24T06:00:50;95755.28;;;14.90;58.50
22257;BME280;11297;42.686;23.374;2022-10-24T06:03:16;95749.59;;;15.05;57.98
22257;BME280;11297;42.686;23.374;2022-10-24T06:05:41;95748.66;;;15.09;57.33
22257;BME280;11297;42.686;23.374;2022-10-24T06:08:07;95761.50;;;15.19;57.47
22257;BME280;11297;42.686;23.374;2022-10-24T06:10:34;95752.22;;;15.30;57.22
22257;BME280;11297;42.686;23.374;2022-10-24T06:12:59;95759.59;;;15.53;56.98
22257;BME280;11297;42.686;23.374;2022-10-24T06:15:25;95744.75;;;15.74;56.16
22257;BME280;11297;42.686;23.374;2022-10-24T06:17:50;95749.75;;;15.96;55.62
22257;BME280;11297;42.686;23.374;2022-10-24T06:20:16;95752.66;;;16.03;55.84
22257;BME280;11297;42.686;23.374;2022-10-24T06:22:41;95740.22;;;16.28;54.43
22257;BME280;11297;42.686;23.374;2022-10-24T06:25:10;95734.13;;;16.74;53.68
22257;BME280;11297;42.686;23.374;2022-10-24T06:27:35;95741.28;;;17.05;52.59
22257;BME280;11297;42.686;23.374;2022-10-24T06:30:01;95753.59;;;16.93;53.22
22257;BME280;11297;42.686;23.374;2022-10-24T06:32:26;95745.78;;;17.05;53.28
22257;BME280;11297;42.686;23.374;2022-10-24T06:34:51;95759.00;;;17.49;51.97
22257;BME280;11297;42.686;23.374;2022-10-24T06:37:17;95756.47;;;17.84;51.14
22257;BME280;11297;42.686;23.374;2022-10-24T06:39:42;95763.53;;;18.04;50.33
22257;BME280;11297;42.686;23.374;2022-10-24T06:42:08;95753.81;;;18.40;50.55
22257;BME280;11297;42.686;23.374;2022-10-24T06:44:33;95755.13;;;18.46;49.59
22257;BME280;11297;42.686;23.374;2022-10-24T06:46:59;95762.56;;;18.80;49.21
22257;BME280;11297;42.686;23.374;2022-10-24T06:49:24;95772.75;;;19.05;48.29
22257;BME280;11297;42.686;23.374;2022-10-24T06:51:50;95763.34;;;19.19;48.06
22257;BME280;11297;42.686;23.374;2022-10-24T06:54:15;95767.84;;;19.31;47.97
22257;BME280;11297;42.686;23.374;2022-10-24T06:56:41;95766.06;;;19.77;46.80
22257;BME280;11297;42.686;23.374;2022-10-24T06:59:09;95766.81;;;19.90;46.65
22257;BME280;11297;42.686;23.374;2022-10-24T07:01:35;95758.50;;;20.18;45.96
22257;BME280;11297;42.686;23.374;2022-10-24T07:04:00;95763.38;;;20.81;44.62
22257;BME280;11297;42.686;23.374;2022-10-24T07:06:28;95761.00;;;21.11;44.06
22257;BME280;11297;42.686;23.374;2022-10-24T07:08:56;95757.53;;;21.44;43.00
22257;BME280;11297;42.686;23.374;2022-10-24T07:11:22;95765.13;;;21.64;42.56
22257;BME280;11297;42.686;23.374;2022-10-24T07:13:48;95764.44;;;21.67;42.61
22257;BME280;11297;42.686;23.374;2022-10-24T07:16:14;95763.72;;;21.89;41.83
22257;BME280;11297;42.686;23.374;2022-10-24T07:18:40;95757.09;;;22.21;40.98
22257;BME280;11297;42.686;23.374;2022-10-24T07:21:17;95753.72;;;22.02;41.16
22257;BME280;11297;42.686;23.374;2022-10-24T07:23:43;95750.44;;;22.30;41.02
22257;BME280;11297;42.686;23.374;2022-10-24T07:26:11;95755.31;;;22.51;41.28
22257;BME280;11297;42.686;23.374;2022-10-24T07:28:38;95752.72;;;22.54;40.96
22257;BME280;11297;42.686;23.374;2022-10-24T07:31:04;95758.47;;;22.85;40.87
22257;BME280;11297;42.686;23.374;2022-10-24T07:33:30;95758.03;;;22.80;40.67
22257;BME280;11297;42.686;23.374;2022-10-24T07:35:56;95756.34;;;22.68;40.59
22257;BME280;11297;42.686;23.374;2022-10-24T07:38:21;95752.66;;;22.76;40.27
22257;BME280;11297;42.686;23.374;2022-10-24T07:40:47;95750.81;;;23.03;39.37
22257;BME280;11297;42.686;23.374;2022-10-24T07:43:13;95754.69;;;23.12;39.91
22257;BME280;11297;42.686;23.374;2022-10-24T07:45:39;95749.25;;;23.27;39.09
22257;BME280;11297;42.686;23.374;2022-10-24T07:48:05;95762.78;;;23.22;39.68
22257;BME280;11297;42.686;23.374;2022-10-24T07:50:32;95766.28;;;23.92;57.09
22257;BME280;11297;42.686;23.374;2022-10-24T07:52:58;95745.69;;;24.61;43.88
22257;BME280;11297;42.686;23.374;2022-10-24T07:55:23;95747.91;;;24.59;41.72
22257;BME280;11297;42.686;23.374;2022-10-24T07:57:48;95740.66;;;25.06;40.22
22257;BME280;11297;42.686;23.374;2022-10-24T08:00:14;95745.84;;;25.63;42.14
22257;BME280;11297;42.686;23.374;2022-10-24T08:02:40;95745.16;;;25.83;44.01
22257;BME280;11297;42.686;23.374;2022-10-24T08:05:05;95742.22;;;26.50;39.26
22257;BME280;11297;42.686;23.374;2022-10-24T08:07:34;95739.13;;;26.73;41.59
22257;BME280;11297;42.686;23.374;2022-10-24T08:09:59;95734.16;;;26.82;36.19
22257;BME280;11297;42.686;23.374;2022-10-24T08:12:25;95726.91;;;27.03;39.00
22257;BME280;11297;42.686;23.374;2022-10-24T08:14:51;95737.72;;;27.74;38.79
22257;BME280;11297;42.686;23.374;2022-10-24T08:17:17;95727.44;;;28.30;38.12
22257;BME280;11297;42.686;23.374;2022-10-24T08:19:44;95724.34;;;28.82;34.54
22257;BME280;11297;42.686;23.374;2022-10-24T08:22:10;95722.28;;;28.56;33.69
22257;BME280;11297;42.686;23.374;2022-10-24T08:24:35;95724.47;;;28.65;34.39
22257;BME280;11297;42.686;23.374;2022-10-24T08:27:01;95720.78;;;28.48;32.38
22257;BME280;11297;42.686;23.374;2022-10-24T08:29:26;95731.84;;;28.54;36.52
22257;BME280;11297;42.686;23.374;2022-10-24T08:31:55;95726.19;;;28.89;35.98
22257;BME280;11297;42.686;23.374;2022-10-24T08:34:21;95714.94;;;28.67;35.08
22257;BME280;11297;42.686;23.374;2022-10-24T08:36:48;95716.31;;;29.19;34.40
22257;BME280;11297;42.686;23.374;2022-10-24T08:39:15;95710.88;;;28.92;31.14
22257;BME280;11297;42.686;23.374;2022-10-24T08:41:44;95708.94;;;29.30;35.11
22257;BME280;11297;42.686;23.374;2022-10-24T08:44:32;95705.00;;;29.38;32.19
22257;BME280;11297;42.686;23.374;2022-10-24T08:49:50;95710.13;;;27.94;33.05
22257;BME280;11297;42.686;23.374;2022-10-24T08:52:37;95699.81;;;28.91;33.44
22257;BME280;11297;42.686;23.374;2022-10-24T08:55:12;95693.66;;;28.53;33.79
22257;BME280;11297;42.686;23.374;2022-10-24T08:57:41;95693.38;;;29.18;35.67
22257;BME280;11297;42.686;23.374;2022-10-24T09:00:32;95692.69;;;28.74;31.66
22257;BME280;11297;42.686;23.374;2022-10-24T09:03:18;95696.56;;;28.26;33.62
22257;BME280;11297;42.686;23.374;2022-10-24T09:05:48;95682.31;;;28.39;33.77
22257;BME280;11297;42.686;23.374;2022-10-24T09:08:42;95677.09;;;28.22;33.37
22257;BME280;11297;42.686;23.374;2022-10-24T09:14:01;95663.97;;;27.87;34.09
22257;BME280;11297;42.686;23.374;2022-10-24T09:16:27;95675.22;;;27.58;34.19
22257;BME280;11297;42.686;23.374;2022-10-24T09:18:54;95676.78;;;28.13;34.89
22257;BME280;11297;42.686;23.374;2022-10-24T09:21:21;95677.22;;;28.51;35.69
22257;BME280;11297;42.686;23.374;2022-10-24T09:23:48;95673.44;;;28.45;33.27
22257;BME280;11297;42.686;23.374;2022-10-24T09:26:20;95674.03;;;27.66;34.71
22257;BME280;11297;42.686;23.374;2022-10-24T09:28:47;95669.91;;;27.47;34.08
22257;BME280;11297;42.686;23.374;2022-10-24T09:31:19;95674.31;;;27.00;34.65
22257;BME280;11297;42.686;23.374;2022-10-24T09:33:46;95674.75;;;26.71;35.58
22257;BME280;11297;42.686;23.374;2022-10-24T09:36:15;95669.06;;;26.58;36.93
22257;BME280;11297;42.686;23.374;2022-10-24T09:38:44;95660.16;;;27.13;35.57
22257;BME280;11297;42.686;23.374;2022-10-24T09:41:29;95669.34;;;27.05;36.07
22257;BME280;11297;42.686;23.374;2022-10-24T09:43:59;95658.63;;;27.16;34.69
22257;BME280;11297;42.686;23.374;2022-10-24T09:46:27;95663.94;;;27.23;36.91
22257;BME280;11297;42.686;23.374;2022-10-24T09:49:08;95663.84;;;27.40;37.66
22257;BME280;11297;42.686;23.374;2022-10-24T09:52:06;95659.97;;;28.56;36.87
22257;BME280;11297;42.686;23.374;2022-10-24T09:54:34;95652.75;;;29.26;36.59
22257;BME280;11297;42.686;23.374;2022-10-24T10:04:34;95650.84;;;28.53;32.60
22257;BME280;11297;42.686;23.374;2022-10-24T10:07:10;95648.97;;;28.87;33.52
22257;BME280;11297;42.686;23.374;2022-10-24T10:09:36;95644.59;;;29.33;34.97
22257;BME280;11297;42.686;23.374;2022-10-24T10:12:25;95638.41;;;29.40;32.02
22257;BME280;11297;42.686;23.374;2022-10-24T10:14:51;95636.13;;;29.64;32.88
22257;BME280;11297;42.686;23.374;2022-10-24T10:17:23;95637.91;;;28.85;32.38
22257;BME280;11297;42.686;23.374;2022-10-24T10:19:49;95631.50;;;28.39;33.42
22257;BME280;11297;42.686;23.374;2022-10-24T10:22:30;95633.06;;;28.73;36.12
22257;BME280;11297;42.686;23.374;2022-10-24T10:24:57;95629.38;;;29.56;35.54
22257;BME280;11297;42.686;23.374;2022-10-24T10:27:36;95624.75;;;29.01;32.72
22257;BME280;11297;42.686;23.374;2022-10-24T10:30:28;95629.75;;;29.85;35.12
22257;BME280;11297;42.686;23.374;2022-10-24T10:35:22;95610.22;;;30.30;31.27
22257;BME280;11297;42.686;23.374;2022-10-24T10:38:08;95610.31;;;30.03;29.76
22257;BME280;11297;42.686;23.374;2022-10-24T10:40:44;95600.34;;;29.78;31.42
22257;BME280;11297;42.686;23.374;2022-10-24T10:43:28;95590.31;;;29.59;31.62
22257;BME280;11297;42.686;23.374;2022-10-24T10:51:54;95592.78;;;28.07;34.93
22257;BME280;11297;42.686;23.374;2022-10-24T10:56:55;95589.81;;;29.41;36.95
22257;BME280;11297;42.686;23.374;2022-10-24T10:59:44;95576.53;;;29.83;35.33
22257;BME280;11297;42.686;23.374;2022-10-24T11:02:46;95576.53;;;29.83;34.65
22257;BME280;11297;42.686;23.374;2022-10-24T11:11:21;95562.75;;;29.85;32.81
22257;BME280;11297;42.686;23.374;2022-10-24T11:16:25;95564.19;;;28.81;33.36
22257;BME280;11297;42.686;23.374;2022-10-24T11:18:54;95557.28;;;28.10;34.19
22257;BME280;11297;42.686;23.374;2022-10-24T11:21:23;95561.44;;;28.14;34.76
22257;BME280;11297;42.686;23.374;2022-10-24T11:26:37;95552.41;;;27.54;36.39
22257;BME280;11297;42.686;23.374;2022-10-24T11:31:48;95543.22;;;27.59;35.40
22257;BME280;11297;42.686;23.374;2022-10-24T11:34:16;95542.53;;;27.44;36.31
22257;BME280;11297;42.686;23.374;2022-10-24T11:39:23;95535.25;;;27.48;43.87
22257;BME280;11297;42.686;23.374;2022-10-24T11:42:24;95523.34;;;27.63;37.22
22257;BME280;11297;42.686;23.374;2022-10-24T11:45:08;95530.88;;;27.75;36.93
22257;BME280;11297;42.686;23.374;2022-10-24T11:50:46;95528.72;;;27.56;36.33
22257;BME280;11297;42.686;23.374;2022-10-24T11:55:52;95514.00;;;27.35;35.81
22257;BME280;11297;42.686;23.374;2022-10-24T11:58:20;95512.47;;;27.34;38.06
22257;BME280;11297;42.686;23.374;2022-10-24T12:04:12;95508.81;;;27.10;38.13
22257;BME280;11297;42.686;23.374;2022-10-24T12:09:33;95505.97;;;26.70;36.44
22257;BME280;11297;42.686;23.374;2022-10-24T12:17:44;95495.09;;;26.20;37.48
22257;BME280;11297;42.686;23.374;2022-10-24T12:20:17;95494.34;;;26.12;38.94
22257;BME280;11297;42.686;23.374;2022-10-24T12:22:44;95486.84;;;25.76;37.80
22257;BME280;11297;42.686;23.374;2022-10-24T12:27:40;95481.53;;;25.69;37.80
22257;BME280;11297;42.686;23.374;2022-10-24T12:32:38;95480.75;;;25.79;38.87
22257;BME280;11297;42.686;23.374;2022-10-24T12:35:32;95477.69;;;25.88;37.56
22257;BME280;11297;42.686;23.374;2022-10-24T12:37:59;95477.69;;;25.98;37.38
22257;BME280;11297;42.686;23.374;2022-10-24T12:51:32;95474.56;;;26.31;40.37
22257;BME280;11297;42.686;23.374;2022-10-24T12:56:25;95474.56;;;26.17;40.88
22257;BME280;11297;42.686;23.374;2022-10-24T12:59:00;95472.63;;;26.24;39.14
22257;BME280;11297;42.686;23.374;2022-10-24T13:01:34;95469.97;;;26.31;39.99
22257;BME280;11297;42.686;23.374;2022-10-24T13:09:39;95454.00;;;26.21;39.02
22257;BME280;11297;42.686;23.374;2022-10-24T13:20:24;95449.69;;;26.54;38.94
22257;BME280;11297;42.686;23.374;2022-10-24T13:23:20;95451.91;;;26.66;52.01
22257;BME280;11297;42.686;23.374;2022-10-24T13:25:45;95441.56;;;26.72;39.55
22257;BME280;11297;42.686;23.374;2022-10-24T13:30:47;95446.59;;;26.66;50.58
22257;BME280;11297;42.686;23.374;2022-10-24T13:33:40;95454.56;;;26.70;52.26
22257;BME280;11297;42.686;23.374;2022-10-24T13:36:12;95448.44;;;26.73;50.29
22257;BME280;11297;42.686;23.374;2022-10-24T13:38:57;95447.28;;;26.70;40.41
22257;BME280;11297;42.686;23.374;2022-10-24T13:41:37;95443.47;;;26.75;37.73
22257;BME280;11297;42.686;23.374;2022-10-24T13:44:05;95441.56;;;26.72;40.55
22257;BME280;11297;42.686;23.374;2022-10-24T13:46:52;95445.78;;;26.73;37.01
22257;BME280;11297;42.686;23.374;2022-10-24T13:49:25;95447.34;;;26.63;39.49
22257;BME280;11297;42.686;23.374;2022-10-24T13:51:55;95441.63;;;26.61;41.37
22257;BME280;11297;42.686;23.374;2022-10-24T13:54:27;95439.75;;;26.58;36.67
22257;BME280;11297;42.686;23.374;2022-10-24T13:56:54;95430.34;;;26.37;38.01
22257;BME280;11297;42.686;23.374;2022-10-24T13:59:36;95433.81;;;26.30;37.59
22257;BME280;11297;42.686;23.374;2022-10-24T14:02:23;95437.22;;;26.27;41.44
22257;BME280;11297;42.686;23.374;2022-10-24T14:04:50;95435.00;;;26.12;42.45
22257;BME280;11297;42.686;23.374;2022-10-24T14:07:22;95428.91;;;26.11;40.83
22257;BME280;11297;42.686;23.374;2022-10-24T14:09:56;95425.47;;;26.11;37.86
22257;BME280;11297;42.686;23.374;2022-10-24T14:12:26;95427.06;;;25.98;37.74
22257;BME280;11297;42.686;23.374;2022-10-24T14:14:52;95428.63;;;25.78;38.25
22257;BME280;11297;42.686;23.374;2022-10-24T14:19:51;95419.53;;;25.48;39.03
22257;BME280;11297;42.686;23.374;2022-10-24T14:22:20;95414.25;;;25.24;39.34
22257;BME280;11297;42.686;23.374;2022-10-24T14:24:46;95411.22;;;25.08;39.62
22257;BME280;11297;42.686;23.374;2022-10-24T14:27:12;95424.53;;;25.15;40.06
22257;BME280;11297;42.686;23.374;2022-10-24T14:29:38;95425.66;;;25.10;39.51
22257;BME280;11297;42.686;23.374;2022-10-24T14:32:14;95413.84;;;24.94;40.14
22257;BME280;11297;42.686;23.374;2022-10-24T14:34:39;95425.22;;;24.84;40.19
22257;BME280;11297;42.686;23.374;2022-10-24T14:37:13;95433.56;;;24.69;40.55
22257;BME280;11297;42.686;23.374;2022-10-24T14:39:40;95418.38;;;24.52;40.16
22257;BME280;11297;42.686;23.374;2022-10-24T14:42:12;95424.44;;;24.49;40.16
22257;BME280;11297;42.686;23.374;2022-10-24T14:44:40;95414.91;;;24.38;40.13
22257;BME280;11297;42.686;23.374;2022-10-24T14:49:43;95431.13;;;24.15;40.33
22257;BME280;11297;42.686;23.374;2022-10-24T14:52:11;95415.19;;;24.12;40.83
22257;BME280;11297;42.686;23.374;2022-10-24T14:54:43;95415.19;;;24.12;40.83